Time;durP1;ratioP1;P1;durP2;ratioP2;P2;SDS_P1;SDS_P2;PMS_P1;PMS_P2;Temp;Humidity;BMP_temperature;BMP_pressure;BME280_temperature;BME280_humidity;BME280_pressure;Samples;Min_cycle;Max_cycle;Signal;HPM_P1;HPM_P2
2021/09/17 00:02:23;;;;;;;6.05;3.78;;;16.80;87.50;;;;;;5075684;28;20443;-82
2021/09/17 00:04:50;;;;;;;4.72;3.10;;;16.80;87.60;;;;;;5075454;28;20081;-83
2021/09/17 00:07:16;;;;;;;5.63;3.20;;;16.80;87.60;;;;;;5075876;28;20025;-82
2021/09/17 00:09:41;;;;;;;4.47;2.85;;;16.90;87.70;;;;;;5075980;28;20028;-82
2021/09/17 00:12:07;;;;;;;5.20;2.88;;;16.90;87.70;;;;;;5075926;28;20023;-83
2021/09/17 00:14:32;;;;;;;4.75;3.60;;;16.90;87.70;;;;;;5057876;28;20020;-82
2021/09/17 00:16:58;;;;;;;5.78;4.15;;;16.90;87.70;;;;;;5075644;28;20021;-83
2021/09/17 00:19:23;;;;;;;7.07;4.22;;;17.00;87.70;;;;;;5075514;28;20020;-83
2021/09/17 00:21:49;;;;;;;6.75;4.15;;;16.90;87.70;;;;;;5075898;28;20072;-84
2021/09/17 00:24:14;;;;;;;6.50;4.15;;;16.90;87.80;;;;;;5075790;28;20056;-83
2021/09/17 00:26:40;;;;;;;5.68;3.53;;;17.00;87.90;;;;;;5075682;28;20021;-82
2021/09/17 00:29:05;;;;;;;5.00;3.17;;;17.00;87.90;;;;;;5075494;28;20067;-83
2021/09/17 00:31:31;;;;;;;6.90;4.00;;;16.90;87.90;;;;;;5075398;28;20489;-83
2021/09/17 00:33:56;;;;;;;6.53;3.90;;;16.90;87.90;;;;;;5057137;28;20028;-83
2021/09/17 00:36:22;;;;;;;6.97;3.80;;;16.90;87.90;;;;;;5075288;28;20017;-82
2021/09/17 00:38:47;;;;;;;7.28;4.25;;;16.90;88.00;;;;;;5075017;28;20519;-82
2021/09/17 00:41:13;;;;;;;7.80;4.90;;;16.90;88.00;;;;;;5075273;28;20409;-84
2021/09/17 00:43:39;;;;;;;5.75;3.70;;;16.90;88.10;;;;;;5075423;28;20463;-83
2021/09/17 00:46:05;;;;;;;6.60;3.85;;;16.90;88.20;;;;;;5075103;28;20033;-83
2021/09/17 00:48:31;;;;;;;5.47;3.90;;;16.90;88.20;;;;;;5074768;28;20497;-83
2021/09/17 00:50:56;;;;;;;7.10;4.38;;;16.90;88.10;;;;;;5075204;28;20078;-81
2021/09/17 00:53:22;;;;;;;6.68;5.18;;;16.90;88.10;;;;;;5074834;28;20488;-83
2021/09/17 00:55:47;;;;;;;5.53;3.30;;;16.90;88.20;;;;;;5057370;28;20141;-84
2021/09/17 00:58:13;;;;;;;6.97;4.03;;;16.90;88.20;;;;;;5075007;28;20466;-83
2021/09/17 01:00:38;;;;;;;6.07;3.92;;;16.90;88.20;;;;;;5075099;28;20145;-83
2021/09/17 01:03:04;;;;;;;7.75;4.78;;;16.90;88.30;;;;;;5074454;28;20474;-83
2021/09/17 01:05:29;;;;;;;6.90;3.92;;;16.90;88.30;;;;;;5056996;28;20039;-83
2021/09/17 01:07:55;;;;;;;5.47;3.58;;;16.80;88.30;;;;;;5074702;28;20013;-83
2021/09/17 01:10:21;;;;;;;5.03;3.47;;;16.90;88.30;;;;;;5074896;28;20060;-84
2021/09/17 01:12:47;;;;;;;5.28;3.45;;;16.90;88.20;;;;;;5074739;28;20031;-84
2021/09/17 01:15:13;;;;;;;5.38;3.35;;;16.90;88.20;;;;;;5074953;28;20063;-84
2021/09/17 01:17:41;;;;;;;5.43;3.20;;;16.90;88.10;;;;;;5074367;28;20425;-84
2021/09/17 01:20:10;;;;;;;5.85;3.65;;;16.90;88.20;;;;;;5074639;28;20078;-84
2021/09/17 01:22:36;;;;;;;5.47;4.13;;;16.90;88.20;;;;;;5074487;28;20389;-83
2021/09/17 01:25:02;;;;;;;5.72;3.38;;;16.90;88.20;;;;;;5074100;28;20033;-83
2021/09/17 01:27:27;;;;;;;6.57;4.43;;;16.90;88.30;;;;;;5074473;28;20078;-83
2021/09/17 01:29:53;;;;;;;4.80;3.10;;;16.90;88.20;;;;;;5074547;28;20024;-83
2021/09/17 01:32:19;;;;;;;5.47;3.55;;;16.90;88.30;;;;;;5073912;28;20515;-82
2021/09/17 01:34:44;;;;;;;5.78;3.75;;;16.90;88.30;;;;;;5074304;28;20020;-83
2021/09/17 01:37:11;;;;;;;7.25;4.70;;;16.90;88.30;;;;;;5074417;28;20027;-83
2021/09/17 01:39:36;;;;;;;6.10;3.90;;;16.90;88.20;;;;;;5074037;28;20135;-83
2021/09/17 01:42:02;;;;;;;5.50;3.60;;;16.90;88.30;;;;;;5056547;28;20021;-83
2021/09/17 01:44:28;;;;;;;5.75;3.33;;;16.90;88.30;;;;;;5074070;28;20118;-83
2021/09/17 01:46:53;;;;;;;5.72;4.30;;;16.90;88.40;;;;;;5073972;28;20547;-84
2021/09/17 01:49:19;;;;;;;5.30;3.10;;;16.90;88.40;;;;;;5073914;28;20017;-84
2021/09/17 01:51:44;;;;;;;6.20;3.78;;;16.90;88.40;;;;;;5074321;28;20470;-82
2021/09/17 01:54:10;;;;;;;6.05;3.53;;;16.90;88.40;;;;;;5073849;28;20485;-83
2021/09/17 01:56:35;;;;;;;5.28;3.80;;;16.80;88.40;;;;;;5074113;28;20056;-83
2021/09/17 01:59:02;;;;;;;5.65;4.47;;;16.80;88.40;;;;;;5073890;28;20081;-83
2021/09/17 02:01:27;;;;;;;4.88;3.30;;;16.80;88.50;;;;;;5073511;28;20503;-83
2021/09/17 02:03:53;;;;;;;5.25;3.28;;;16.80;88.50;;;;;;5073721;28;20028;-82
2021/09/17 02:06:21;;;;;;;6.18;4.03;;;16.80;88.40;;;;;;5055553;28;20032;-82
2021/09/17 02:08:47;;;;;;;5.00;2.72;;;16.90;88.40;;;;;;5073453;28;20021;-82
2021/09/17 02:11:13;;;;;;;4.10;2.60;;;16.90;88.40;;;;;;5073053;28;20032;-82
2021/09/17 02:13:38;;;;;;;4.13;3.03;;;16.90;88.50;;;;;;5073508;28;20526;-82
2021/09/17 02:16:04;;;;;;;5.95;3.17;;;16.90;88.40;;;;;;5055281;28;20577;-82
2021/09/17 02:18:29;;;;;;;5.03;3.13;;;16.90;88.30;;;;;;5055454;28;20161;-83
2021/09/17 02:20:55;;;;;;;6.43;4.18;;;16.90;88.20;;;;;;5073378;28;20632;-82
2021/09/17 02:23:21;;;;;;;5.47;3.17;;;16.90;88.30;;;;;;5055580;28;20024;-82
2021/09/17 02:25:46;;;;;;;5.30;3.22;;;16.90;88.30;;;;;;5073607;28;20120;-82
2021/09/17 02:28:12;;;;;;;5.53;3.58;;;16.90;88.30;;;;;;5073295;28;20021;-82
2021/09/17 02:30:38;;;;;;;4.88;3.53;;;16.90;88.30;;;;;;5073073;28;20397;-82
2021/09/17 02:33:03;;;;;;;4.95;2.95;;;16.90;88.30;;;;;;5073468;28;20021;-82
2021/09/17 02:35:29;;;;;;;5.43;3.47;;;16.90;88.20;;;;;;5073270;28;20526;-81
2021/09/17 02:37:55;;;;;;;5.20;3.42;;;16.90;88.10;;;;;;5055251;28;20405;-81
2021/09/17 02:40:20;;;;;;;5.60;3.90;;;16.90;88.10;;;;;;5073460;28;20069;-82
2021/09/17 02:42:47;;;;;;;5.93;4.00;;;16.90;88.20;;;;;;5073454;28;20032;-83
2021/09/17 02:45:14;;;;;;;5.30;2.78;;;16.80;88.20;;;;;;5054846;28;20485;-82
2021/09/17 02:47:40;;;;;;;5.70;3.38;;;16.80;88.20;;;;;;5055415;28;20427;-82
2021/09/17 02:50:07;;;;;;;5.25;3.03;;;16.80;88.20;;;;;;5073156;28;20099;-81
2021/09/17 02:52:33;;;;;;;6.20;3.47;;;16.90;88.20;;;;;;5072990;28;20463;-82
2021/09/17 02:54:58;;;;;;;5.88;3.50;;;16.80;88.20;;;;;;5055048;28;20027;-81
2021/09/17 02:57:24;;;;;;;5.13;3.40;;;16.80;88.30;;;;;;5055181;28;20115;-81
2021/09/17 02:59:49;;;;;;;5.32;3.22;;;16.80;88.40;;;;;;5072566;28;20027;-82
2021/09/17 03:02:15;;;;;;;3.78;2.60;;;16.80;88.30;;;;;;5072954;28;20025;-82
2021/09/17 03:04:41;;;;;;;6.05;3.45;;;16.80;88.20;;;;;;5072953;28;20020;-82
2021/09/17 03:07:06;;;;;;;6.03;3.85;;;16.80;88.20;;;;;;5072998;28;20025;-82
2021/09/17 03:09:32;;;;;;;5.13;3.10;;;16.80;88.20;;;;;;5055029;28;20025;-82
2021/09/17 03:11:58;;;;;;;5.22;3.03;;;16.80;88.20;;;;;;5072985;28;20044;-82
2021/09/17 03:14:23;;;;;;;7.05;3.65;;;16.70;88.20;;;;;;5072545;28;20016;-83
2021/09/17 03:16:49;;;;;;;5.10;3.00;;;16.70;88.30;;;;;;5072801;28;20031;-83
2021/09/17 03:19:16;;;;;;;7.38;3.90;;;16.70;88.30;;;;;;5054729;28;20103;-82
2021/09/17 03:21:42;;;;;;;6.43;3.70;;;16.70;88.40;;;;;;5072785;28;20024;-82
2021/09/17 03:24:08;;;;;;;5.72;3.22;;;16.60;88.40;;;;;;5058177;28;20025;-83
2021/09/17 03:26:33;;;;;;;4.93;3.50;;;16.60;88.50;;;;;;5076632;28;20036;-83
2021/09/17 03:28:59;;;;;;;4.00;3.25;;;16.60;88.50;;;;;;5076452;28;20028;-83
2021/09/17 03:31:25;;;;;;;5.72;2.58;;;16.60;88.50;;;;;;5077012;28;20031;-83
2021/09/17 03:33:51;;;;;;;4.85;3.13;;;16.60;88.40;;;;;;5076011;28;20017;-82
2021/09/17 03:36:16;;;;;;;4.50;2.85;;;16.60;88.40;;;;;;5076268;28;20107;-82
2021/09/17 03:38:42;;;;;;;4.53;2.97;;;16.60;88.40;;;;;;5076160;28;20068;-83
2021/09/17 03:41:07;;;;;;;4.20;2.90;;;16.60;88.40;;;;;;5076066;28;20036;-82
2021/09/17 03:43:33;;;;;;;5.57;3.08;;;16.60;88.30;;;;;;5075592;28;20024;-83
2021/09/17 03:45:59;;;;;;;3.10;2.25;;;16.60;88.30;;;;;;5076470;28;20036;-81
2021/09/17 03:48:25;;;;;;;4.32;2.80;;;16.60;88.30;;;;;;5076346;28;20024;-83
2021/09/17 03:50:51;;;;;;;2.85;2.55;;;16.60;88.30;;;;;;5076102;28;20025;-82
2021/09/17 03:53:17;;;;;;;4.60;3.13;;;16.60;88.30;;;;;;5076112;28;20082;-87
2021/09/17 03:55:42;;;;;;;5.50;3.55;;;16.60;88.40;;;;;;5075705;28;20025;-82
2021/09/17 03:58:08;;;;;;;5.90;4.00;;;16.60;88.40;;;;;;5054150;28;20099;-83
2021/09/17 04:00:34;;;;;;;5.97;3.33;;;16.60;88.50;;;;;;5052962;28;20500;-82
2021/09/17 04:03:00;;;;;;;5.40;3.17;;;16.60;88.50;;;;;;5053123;28;20432;-82
2021/09/17 04:05:25;;;;;;;4.40;2.58;;;16.50;88.50;;;;;;5053366;28;20036;-83
2021/09/17 04:07:51;;;;;;;4.07;2.28;;;16.60;88.50;;;;;;5053206;28;20025;-84
2021/09/17 04:10:18;;;;;;;4.93;2.83;;;16.60;88.50;;;;;;5053586;28;20104;-83
2021/09/17 04:12:44;;;;;;;4.60;3.05;;;16.60;88.50;;;;;;5052888;28;20474;-83
2021/09/17 04:15:11;;;;;;;4.22;3.00;;;16.60;88.50;;;;;;5053440;28;20033;-84
2021/09/17 04:17:37;;;;;;;5.47;4.03;;;16.50;88.50;;;;;;5053486;28;20464;-83
2021/09/17 04:20:05;;;;;;;5.18;3.42;;;16.60;88.60;;;;;;5052524;28;20055;-84
2021/09/17 04:22:31;;;;;;;6.85;3.78;;;16.60;88.60;;;;;;5053324;28;20443;-84
2021/09/17 04:24:56;;;;;;;4.93;2.88;;;16.60;88.60;;;;;;5051479;28;20036;-84
2021/09/17 04:27:22;;;;;;;5.60;3.13;;;16.60;88.60;;;;;;5053227;28;20359;-83
2021/09/17 04:29:48;;;;;;;6.32;3.83;;;16.50;88.60;;;;;;5053680;28;20127;-84
2021/09/17 04:32:14;;;;;;;6.25;3.72;;;16.50;88.60;;;;;;5052919;28;20024;-83
2021/09/17 04:34:40;;;;;;;6.20;3.78;;;16.50;88.60;;;;;;5052399;28;20050;-84
2021/09/17 04:37:05;;;;;;;4.45;2.97;;;16.50;88.60;;;;;;5052779;28;20021;-84
2021/09/17 04:39:31;;;;;;;6.20;4.65;;;16.50;88.60;;;;;;5052178;28;20059;-83
2021/09/17 04:41:57;;;;;;;6.50;3.47;;;16.50;88.70;;;;;;5052639;28;20025;-83
2021/09/17 04:44:22;;;;;;;5.07;3.05;;;16.50;88.70;;;;;;5052075;28;20031;-83
2021/09/17 04:46:48;;;;;;;4.72;2.90;;;16.60;88.70;;;;;;5052747;28;20033;-83
2021/09/17 04:49:13;;;;;;;4.90;3.15;;;16.60;88.70;;;;;;5034463;28;20020;-82
2021/09/17 04:51:39;;;;;;;6.45;3.25;;;16.60;88.60;;;;;;5052248;28;20059;-81
2021/09/17 04:54:04;;;;;;;3.83;2.67;;;16.60;88.60;;;;;;5051877;28;20029;-82
2021/09/17 04:56:30;;;;;;;5.15;3.08;;;16.60;88.60;;;;;;5034459;28;20033;-82
2021/09/17 04:58:55;;;;;;;5.53;3.28;;;16.60;88.60;;;;;;5034374;28;20021;-82
2021/09/17 05:01:21;;;;;;;5.28;2.70;;;16.60;89.20;;;;;;5034440;28;20104;-81
2021/09/17 05:03:47;;;;;;;5.35;3.03;;;16.60;88.70;;;;;;5034073;28;20047;-81
2021/09/17 05:06:13;;;;;;;4.60;2.90;;;16.60;88.70;;;;;;5051819;28;20451;-82
2021/09/17 05:08:38;;;;;;;5.38;2.90;;;16.60;88.70;;;;;;5056745;28;20503;-82
2021/09/17 05:11:04;;;;;;;4.60;3.08;;;16.60;88.70;;;;;;5054098;28;20024;-87
2021/09/17 05:13:30;;;;;;;5.85;3.55;;;16.60;88.70;;;;;;5072358;28;20469;-82
2021/09/17 05:15:55;;;;;;;5.72;3.15;;;16.60;89.10;;;;;;5056251;28;20027;-82
2021/09/17 05:18:21;;;;;;;4.25;2.53;;;16.60;88.80;;;;;;5074026;28;20035;-81
2021/09/17 05:20:47;;;;;;;5.82;3.58;;;16.60;88.80;;;;;;5074599;28;20032;-79
2021/09/17 05:23:12;;;;;;;4.45;2.75;;;16.60;88.80;;;;;;5073512;28;20111;-79
2021/09/17 05:25:38;;;;;;;7.03;3.65;;;16.60;88.70;;;;;;5055996;28;20068;-79
2021/09/17 05:28:04;;;;;;;5.82;3.67;;;16.60;88.70;;;;;;5073786;28;20020;-76
2021/09/17 05:30:29;;;;;;;6.10;4.07;;;16.60;88.70;;;;;;5073866;28;20028;-78
2021/09/17 05:32:55;;;;;;;4.72;3.10;;;16.60;88.70;;;;;;5073714;28;20024;-78
2021/09/17 05:35:20;;;;;;;6.00;3.55;;;16.70;88.80;;;;;;5073680;28;20036;-76
2021/09/17 05:37:46;;;;;;;6.13;4.38;;;16.60;88.70;;;;;;5073161;28;20067;-78
2021/09/17 05:40:12;;;;;;;5.10;3.10;;;16.70;88.80;;;;;;5073609;28;20016;-77
2021/09/17 05:42:38;;;;;;;5.90;3.67;;;16.70;88.80;;;;;;5073627;28;20035;-78
2021/09/17 05:45:05;;;;;;;5.57;3.20;;;16.70;88.90;;;;;;5072856;28;20071;-78
2021/09/17 05:47:31;;;;;;;6.22;4.07;;;16.70;88.90;;;;;;5073655;28;20094;-78
2021/09/17 05:49:57;;;;;;;6.07;3.70;;;16.70;88.90;;;;;;5073646;28;20481;-78
2021/09/17 05:52:22;;;;;;;7.47;4.57;;;16.60;88.90;;;;;;5073131;28;20048;-78
2021/09/17 05:54:48;;;;;;;6.10;3.70;;;16.60;89.00;;;;;;5055451;28;20020;-79
2021/09/17 05:57:14;;;;;;;5.63;3.60;;;16.70;89.10;;;;;;5055450;28;20059;-78
2021/09/17 05:59:39;;;;;;;6.10;3.92;;;16.60;88.90;;;;;;5073454;28;20354;-81
2021/09/17 06:02:07;;;;;;;7.28;4.22;;;16.70;89.00;;;;;;5073441;28;20028;-78
2021/09/17 06:04:32;;;;;;;5.15;3.20;;;16.70;89.00;;;;;;5055273;28;20430;-78
2021/09/17 06:06:58;;;;;;;5.47;3.15;;;16.70;89.00;;;;;;5072834;28;20052;-77
2021/09/17 06:09:24;;;;;;;6.13;4.03;;;16.60;89.00;;;;;;5073160;28;20097;-77
2021/09/17 06:11:49;;;;;;;5.13;3.20;;;16.70;89.10;;;;;;5073220;28;20187;-77
2021/09/17 06:14:15;;;;;;;5.53;3.58;;;16.70;89.00;;;;;;5073221;28;20052;-79
2021/09/17 06:16:40;;;;;;;4.40;2.63;;;16.70;88.90;;;;;;5055190;28;20035;-77
2021/09/17 06:19:06;;;;;;;4.10;2.70;;;16.70;88.90;;;;;;5073181;28;20025;-77
2021/09/17 06:21:33;;;;;;;4.82;2.95;;;16.80;88.90;;;;;;5072591;28;20474;-78
2021/09/17 06:23:59;;;;;;;3.97;2.65;;;16.80;88.80;;;;;;5055249;28;20020;-78
2021/09/17 06:26:30;;;;;;;5.50;2.90;;;16.80;88.80;;;;;;5073035;28;20036;-78
2021/09/17 06:28:56;;;;;;;5.38;3.22;;;16.90;88.90;;;;;;5073146;28;20017;-78
2021/09/17 06:31:21;;;;;;;4.82;3.08;;;16.90;88.90;;;;;;5055102;28;20381;-78
2021/09/17 06:33:47;;;;;;;4.40;2.97;;;17.00;88.80;;;;;;5073114;28;20028;-78
2021/09/17 06:36:12;;;;;;;5.38;3.15;;;17.10;88.80;;;;;;5072567;28;20020;-78
2021/09/17 06:38:38;;;;;;;5.57;3.55;;;17.10;88.70;;;;;;5073133;28;20493;-78
2021/09/17 06:41:03;;;;;;;6.25;3.67;;;17.20;88.70;;;;;;5072955;28;20025;-78
2021/09/17 06:43:29;;;;;;;6.25;3.92;;;17.20;88.70;;;;;;5072752;28;20052;-78
2021/09/17 06:45:54;;;;;;;6.30;3.83;;;17.30;88.60;;;;;;5072998;28;20067;-78
2021/09/17 06:48:20;;;;;;;5.97;3.92;;;17.30;88.60;;;;;;5072776;28;20016;-77
2021/09/17 06:50:45;;;;;;;5.10;3.20;;;17.30;88.60;;;;;;5072318;28;20420;-78
2021/09/17 06:53:11;;;;;;;6.50;3.90;;;17.40;88.70;;;;;;5072912;28;20020;-78
2021/09/17 06:55:36;;;;;;;6.10;3.15;;;17.40;88.60;;;;;;5072719;28;20097;-78
2021/09/17 06:58:04;;;;;;;6.28;3.33;;;17.40;88.60;;;;;;5076218;28;20025;-76
2021/09/17 07:00:33;;;;;;;5.47;3.83;;;17.50;88.60;;;;;;5076650;28;20028;-76
2021/09/17 07:02:59;;;;;;;5.70;3.90;;;17.50;88.60;;;;;;5076735;28;20020;-77
2021/09/17 07:05:26;;;;;;;4.95;3.28;;;17.50;88.50;;;;;;5075997;28;20043;-77
2021/09/17 07:07:52;;;;;;;5.68;3.47;;;17.60;88.50;;;;;;5076579;28;20031;-77
2021/09/17 07:10:18;;;;;;;5.57;3.63;;;17.70;88.50;;;;;;5125354;23;20074;-79
2021/09/17 07:12:45;;;;;;;5.30;3.72;;;17.70;88.50;;;;;;5117683;28;20468;-80
2021/09/17 07:15:12;;;;;;;7.93;5.00;;;17.70;88.40;;;;;;5117791;28;20020;-80
2021/09/17 07:17:38;;;;;;;6.50;4.22;;;17.80;88.40;;;;;;5117437;28;20024;-80
2021/09/17 07:20:04;;;;;;;5.68;3.53;;;17.80;88.50;;;;;;5117068;28;20026;-78
2021/09/17 07:22:30;;;;;;;5.72;4.22;;;17.80;88.60;;;;;;5117372;28;20035;-80
2021/09/17 07:24:55;;;;;;;5.13;3.53;;;17.80;88.50;;;;;;5116978;28;20020;-78
2021/09/17 07:27:22;;;;;;;6.15;3.80;;;17.90;88.50;;;;;;5117114;28;20028;-79
2021/09/17 07:29:47;;;;;;;4.43;3.38;;;17.90;88.40;;;;;;5117411;28;20072;-78
2021/09/17 07:32:13;;;;;;;5.63;3.42;;;17.90;88.40;;;;;;5117395;28;20024;-79
2021/09/17 07:34:38;;;;;;;5.50;4.00;;;17.90;88.30;;;;;;5116633;28;20065;-80
2021/09/17 07:37:06;;;;;;;6.22;3.88;;;17.90;88.30;;;;;;5098743;28;20069;-79
2021/09/17 07:39:32;;;;;;;6.05;3.35;;;17.90;88.40;;;;;;5117227;28;20026;-78
2021/09/17 07:41:58;;;;;;;6.60;3.60;;;18.00;88.40;;;;;;5116969;28;20474;-79
2021/09/17 07:44:23;;;;;;;5.78;3.25;;;18.00;88.30;;;;;;5117189;28;20012;-78
2021/09/17 07:46:49;;;;;;;4.68;3.15;;;18.10;88.30;;;;;;5098763;28;20027;-79
2021/09/17 07:49:14;;;;;;;5.18;3.55;;;18.10;88.20;;;;;;5116690;28;20475;-78
2021/09/17 07:51:40;;;;;;;6.57;3.78;;;18.20;88.10;;;;;;5116811;28;20098;-78
2021/09/17 07:54:05;;;;;;;5.43;3.33;;;18.20;88.00;;;;;;5098256;28;20020;-79
2021/09/17 07:56:31;;;;;;;5.90;4.05;;;18.30;88.00;;;;;;5117429;28;20162;-80
2021/09/17 07:58:56;;;;;;;5.07;3.40;;;18.30;88.00;;;;;;5117389;28;20031;-80
2021/09/17 08:01:22;;;;;;;5.70;3.88;;;18.30;88.00;;;;;;5116671;28;20030;-78
2021/09/17 08:03:47;;;;;;;7.18;4.25;;;18.40;87.90;;;;;;5116190;28;20016;-79
2021/09/17 08:06:14;;;;;;;5.43;3.90;;;18.50;87.90;;;;;;5116493;28;20036;-79
2021/09/17 08:08:40;;;;;;;6.55;3.83;;;18.60;87.80;;;;;;5097239;28;20028;-78
2021/09/17 08:11:06;;;;;;;6.10;3.90;;;18.60;87.60;;;;;;5116618;28;20091;-79
2021/09/17 08:13:31;;;;;;;6.60;4.47;;;18.70;87.60;;;;;;5117925;28;20142;-79
2021/09/17 08:15:57;;;;;;;5.25;3.50;;;18.70;87.60;;;;;;5116519;28;20019;-78
2021/09/17 08:18:22;;;;;;;4.97;3.35;;;18.80;87.50;;;;;;5097723;28;20015;-79
2021/09/17 08:20:49;;;;;;;4.03;3.05;;;18.80;87.50;;;;;;5116164;28;20012;-77
2021/09/17 08:23:19;;;;;;;4.47;2.90;;;18.90;87.40;;;;;;5116502;28;20477;-78
2021/09/17 08:25:54;;;;;;;5.80;3.85;;;18.90;87.30;;;;;;5115884;28;20430;-79
2021/09/17 08:28:20;;;;;;;4.45;3.05;;;18.90;87.30;;;;;;5116429;28;20096;-77
2021/09/17 08:30:45;;;;;;;3.83;2.65;;;18.90;87.40;;;;;;5116207;28;20051;-79
2021/09/17 08:33:11;;;;;;;3.55;2.78;;;18.90;87.40;;;;;;5115630;28;20488;-78
2021/09/17 08:35:36;;;;;;;3.58;2.35;;;18.90;87.50;;;;;;5115773;28;20035;-79
2021/09/17 08:38:02;;;;;;;4.05;2.80;;;18.90;87.60;;;;;;5116153;28;20043;-79
2021/09/17 08:40:28;;;;;;;5.38;3.58;;;19.00;87.60;;;;;;5116075;28;20024;-80
2021/09/17 08:42:56;;;;;;;4.30;2.67;;;19.00;87.50;;;;;;5115872;28;20098;-79
2021/09/17 08:45:22;;;;;;;3.92;2.72;;;19.10;87.50;;;;;;5097635;28;20387;-81
2021/09/17 08:47:50;;;;;;;5.32;3.05;;;19.20;87.40;;;;;;5115820;28;20098;-83
2021/09/17 08:50:17;;;;;;;4.72;3.35;;;19.30;87.20;;;;;;5116278;28;20066;-84
2021/09/17 08:52:43;;;;;;;4.32;2.88;;;19.30;86.90;;;;;;5115506;28;20080;-84
2021/09/17 08:55:09;;;;;;;5.07;3.45;;;19.40;86.90;;;;;;5116042;28;20040;-85
2021/09/17 08:57:34;;;;;;;5.55;3.60;;;19.50;86.80;;;;;;5116106;28;20053;-83
2021/09/17 09:00:00;;;;;;;4.03;3.10;;;19.60;87.40;;;;;;5116270;28;20035;-82
2021/09/17 09:02:29;;;;;;;4.18;2.90;;;19.60;86.70;;;;;;5115494;28;20080;-83
2021/09/17 09:05:03;;;;;;;3.90;2.38;;;19.70;86.70;;;;;;5097591;28;20069;-83
2021/09/17 09:07:40;;;;;;;4.47;3.50;;;19.80;86.60;;;;;;5098116;28;20034;-83
2021/09/17 09:10:08;;;;;;;4.80;3.10;;;19.80;86.60;;;;;;5096141;28;20047;-82
2021/09/17 09:12:56;;;;;;;5.63;3.63;;;19.70;86.70;;;;;;5102481;28;20044;-81
2021/09/17 09:15:28;;;;;;;4.78;3.08;;;19.80;86.70;;;;;;5094915;28;20089;-80
2021/09/17 09:17:56;;;;;;;5.10;2.90;;;19.70;86.80;;;;;;5094272;28;20027;-81
2021/09/17 09:20:39;;;;;;;4.95;3.05;;;19.80;86.80;;;;;;5094843;28;20028;-81
2021/09/17 09:23:06;;;;;;;4.22;2.78;;;19.90;86.70;;;;;;5094859;28;20488;-84
2021/09/17 09:25:33;;;;;;;4.45;3.10;;;20.00;86.40;;;;;;5094943;28;20536;-81
2021/09/17 09:28:16;;;;;;;4.63;3.10;;;20.10;86.30;;;;;;5094583;28;20091;-82
2021/09/17 09:30:41;;;;;;;3.47;2.53;;;20.20;86.10;;;;;;5093330;28;20020;-83
2021/09/17 09:33:25;;;;;;;4.03;2.72;;;20.20;86.10;;;;;;5094460;28;20032;-81
2021/09/17 09:36:00;;;;;;;3.30;2.28;;;20.30;85.90;;;;;;5094424;28;20564;-82
2021/09/17 09:38:43;;;;;;;4.53;3.10;;;20.40;85.90;;;;;;5096616;28;20024;-92
2021/09/17 09:41:30;;;;;;;4.40;2.78;;;20.40;85.90;;;;;;5094974;28;20035;-83
2021/09/17 09:43:57;;;;;;;3.45;2.65;;;20.50;85.90;;;;;;5093904;28;20435;-84
2021/09/17 09:46:31;;;;;;;5.93;3.90;;;20.50;85.90;;;;;;5095152;28;20028;-82
2021/09/17 09:49:05;;;;;;;3.42;2.65;;;20.50;85.70;;;;;;5094647;28;20051;-79
2021/09/17 09:51:35;;;;;;;3.28;2.30;;;20.40;86.00;;;;;;5092766;28;20103;-83
2021/09/17 09:54:03;;;;;;;4.07;3.22;;;20.50;85.90;;;;;;5094026;28;20110;-82
2021/09/17 09:56:30;;;;;;;4.13;2.83;;;20.40;85.80;;;;;;5093501;28;20330;-84
2021/09/17 09:59:01;;;;;;;4.25;2.80;;;20.40;86.00;;;;;;5093834;28;20024;-84
2021/09/17 10:01:28;;;;;;;3.80;2.50;;;20.50;85.90;;;;;;5095009;28;20027;-84
2021/09/17 10:03:56;;;;;;;4.28;2.75;;;20.40;85.90;;;;;;5095356;28;20016;-83
2021/09/17 10:06:27;;;;;;;5.57;3.10;;;20.50;85.90;;;;;;5095082;28;20039;-83
2021/09/17 10:08:55;;;;;;;3.97;2.78;;;20.50;86.50;;;;;;5100139;28;20139;-84
2021/09/17 10:11:22;;;;;;;4.88;3.20;;;20.50;85.70;;;;;;5116431;28;20027;-87
2021/09/17 10:13:49;;;;;;;3.88;2.80;;;20.60;85.70;;;;;;5117218;28;20023;-91
2021/09/17 10:16:16;;;;;;;3.85;2.58;;;20.60;85.60;;;;;;5117299;28;20078;-90
2021/09/17 10:18:43;;;;;;;4.35;3.33;;;20.60;85.60;;;;;;5116006;28;20381;-86
2021/09/17 10:21:10;;;;;;;4.55;3.35;;;20.60;85.40;;;;;;5116382;28;20046;-88
2021/09/17 10:23:38;;;;;;;4.50;3.25;;;20.60;85.50;;;;;;5115688;28;20016;-86
2021/09/17 10:26:09;;;;;;;5.18;2.88;;;20.60;85.50;;;;;;5096713;28;20023;-90
2021/09/17 10:29:08;;;;;;;4.28;3.13;;;20.70;85.50;;;;;;5115020;28;20103;-85
2021/09/17 10:31:45;;;;;;;5.07;3.40;;;20.70;85.40;;;;;;5117698;28;20047;-88
2021/09/17 10:34:30;;;;;;;3.95;2.97;;;20.70;85.30;;;;;;5121367;28;20023;-87
2021/09/17 10:36:56;;;;;;;4.28;3.22;;;20.80;85.40;;;;;;5122099;28;20067;-86
2021/09/17 10:39:22;;;;;;;4.97;4.05;;;20.80;85.40;;;;;;5103390;28;20015;-87
2021/09/17 10:42:14;;;;;;;4.93;3.90;;;20.90;85.20;;;;;;5121832;28;20112;-89
2021/09/17 10:45:11;;;;;;;6.07;3.88;;;20.90;85.00;;;;;;5121390;28;20043;-85
2021/09/17 10:47:39;;;;;;;4.05;2.97;;;20.90;85.20;;;;;;5103624;28;20031;-86
2021/09/17 10:50:14;;;;;;;4.40;3.03;;;20.90;85.20;;;;;;5120799;28;20042;-80
2021/09/17 10:52:42;;;;;;;4.55;3.42;;;20.90;85.20;;;;;;5120702;28;20348;-81
2021/09/17 10:55:28;;;;;;;5.43;3.63;;;20.90;85.00;;;;;;5103000;28;20019;-82
2021/09/17 10:58:23;;;;;;;4.93;3.58;;;20.90;85.00;;;;;;5120202;28;20031;-84
2021/09/17 11:00:56;;;;;;;4.95;3.50;;;20.80;85.20;;;;;;5102101;28;20068;-82
2021/09/17 11:03:40;;;;;;;4.88;3.22;;;20.80;85.30;;;;;;5120549;28;20062;-81
2021/09/17 11:06:18;;;;;;;5.57;4.40;;;20.90;85.20;;;;;;5120556;28;20027;-82
2021/09/17 11:08:47;;;;;;;4.88;3.40;;;20.90;84.90;;;;;;5101743;28;20035;-83
2021/09/17 11:11:30;;;;;;;5.80;3.58;;;20.80;85.00;;;;;;5103047;28;20055;-81
2021/09/17 11:13:59;;;;;;;4.15;2.95;;;21.00;85.20;;;;;;5121137;28;20052;-82
2021/09/17 11:16:26;;;;;;;4.47;3.45;;;21.00;85.00;;;;;;5102395;28;20039;-79
2021/09/17 11:19:00;;;;;;;4.15;3.15;;;21.10;84.70;;;;;;5102393;28;20016;-79
2021/09/17 11:21:29;;;;;;;5.13;3.67;;;21.20;84.60;;;;;;5120467;28;20050;-82
2021/09/17 11:23:55;;;;;;;4.05;2.72;;;21.30;84.50;;;;;;5102493;28;20520;-82
2021/09/17 11:26:29;;;;;;;3.53;2.60;;;21.40;84.40;;;;;;5120289;28;20027;-82
2021/09/17 11:29:16;;;;;;;5.30;3.92;;;21.50;84.10;;;;;;5120433;28;20059;-83
2021/09/17 11:31:47;;;;;;;4.57;3.05;;;21.60;83.90;;;;;;5102500;28;20043;-81
2021/09/17 11:34:17;;;;;;;4.65;3.28;;;21.60;84.10;;;;;;5102240;28;20031;-82
2021/09/17 11:36:50;;;;;;;4.22;3.00;;;21.60;84.30;;;;;;5101694;28;20495;-82
2021/09/17 11:39:25;;;;;;;5.63;3.83;;;21.60;84.40;;;;;;5120363;28;20019;-82
2021/09/17 11:42:21;;;;;;;6.38;3.38;;;21.60;84.10;;;;;;5119763;28;20031;-82
2021/09/17 11:44:49;;;;;;;4.70;3.15;;;21.60;84.40;;;;;;5080803;28;20031;-81
2021/09/17 11:47:26;;;;;;;6.80;4.50;;;21.60;84.30;;;;;;5098762;28;20016;-82
2021/09/17 11:50:08;;;;;;;5.78;3.35;;;21.50;84.50;;;;;;5117034;28;20439;-82
2021/09/17 11:52:41;;;;;;;4.15;3.30;;;21.60;84.60;;;;;;5117472;28;20437;-82
2021/09/17 11:55:12;;;;;;;4.78;3.22;;;21.60;84.60;;;;;;5116228;28;20028;-82
2021/09/17 11:57:41;;;;;;;5.25;3.17;;;21.60;84.60;;;;;;5116972;28;20028;-81
2021/09/17 12:00:28;;;;;;;4.53;3.28;;;21.80;84.30;;;;;;5116765;28;20023;-83
2021/09/17 12:02:56;;;;;;;3.92;2.88;;;22.00;83.90;;;;;;5097630;28;20085;-81
2021/09/17 12:05:27;;;;;;;4.15;3.15;;;22.20;83.70;;;;;;5116480;28;20035;-82
2021/09/17 12:07:53;;;;;;;4.47;2.85;;;22.40;83.40;;;;;;5098379;28;20019;-82
2021/09/17 12:10:40;;;;;;;3.28;2.45;;;22.60;83.10;;;;;;5104155;28;20144;-79
2021/09/17 12:13:13;;;;;;;4.93;3.15;;;22.80;82.80;;;;;;5099655;28;20027;-81
2021/09/17 12:15:46;;;;;;;5.22;3.70;;;22.80;82.50;;;;;;5118121;28;20164;-80
2021/09/17 12:18:22;;;;;;;5.30;4.20;;;22.90;82.60;;;;;;5098340;28;20028;-82
2021/09/17 12:20:51;;;;;;;4.53;2.60;;;22.90;82.60;;;;;;5097832;28;20020;-82
2021/09/17 12:23:32;;;;;;;5.35;3.60;;;23.00;82.60;;;;;;5098278;28;20425;-82
2021/09/17 12:26:10;;;;;;;5.88;3.60;;;23.20;82.00;;;;;;5098603;28;20035;-81
2021/09/17 12:28:36;;;;;;;5.40;3.03;;;23.40;82.00;;;;;;5116185;28;20031;-84
2021/09/17 12:31:10;;;;;;;4.60;3.05;;;23.50;82.00;;;;;;5098016;28;20045;-83
2021/09/17 12:33:36;;;;;;;4.50;3.42;;;23.60;81.80;;;;;;5099095;28;20468;-81
2021/09/17 12:36:13;;;;;;;4.90;3.22;;;23.80;81.60;;;;;;5132374;27;20122;-79
2021/09/17 12:38:40;;;;;;;4.22;2.67;;;23.80;81.70;;;;;;5097294;28;20016;-78
2021/09/17 12:41:11;;;;;;;5.15;3.67;;;23.90;81.60;;;;;;5097391;28;20046;-77
2021/09/17 12:43:39;;;;;;;4.05;3.28;;;24.10;81.20;;;;;;5097613;28;20019;-78
2021/09/17 12:46:10;;;;;;;4.65;3.15;;;24.10;81.40;;;;;;5115893;28;20084;-79
2021/09/17 12:48:38;;;;;;;4.47;3.00;;;24.10;81.60;;;;;;5115763;28;20028;-79
2021/09/17 12:51:04;;;;;;;3.92;2.45;;;24.40;81.20;;;;;;5115876;28;20486;-76
2021/09/17 12:53:39;;;;;;;3.60;2.42;;;24.50;81.00;;;;;;5115188;28;20061;-77